createdAt,value
2019-02-20T00:01:32.947Z,16.33
2019-02-20T00:04:21.488Z,14.03
2019-02-20T00:07:09.547Z,17.60
2019-02-20T00:13:17.533Z,13.87
2019-02-20T00:16:05.609Z,15.80
2019-02-20T00:18:53.547Z,13.90
2019-02-20T00:21:42.170Z,13.63
2019-02-20T00:24:30.523Z,15.83
2019-02-20T00:27:18.456Z,15.43
2019-02-20T00:30:06.571Z,14.50
2019-02-20T00:32:54.604Z,14.03
2019-02-20T00:35:42.574Z,13.27
2019-02-20T00:38:30.878Z,17.20
2019-02-20T00:41:19.574Z,16.03
2019-02-20T00:47:34.619Z,13.83
2019-02-20T00:50:24.246Z,14.03
2019-02-20T00:56:36.375Z,15.70
2019-02-20T00:59:24.066Z,17.77
2019-02-20T01:02:12.246Z,15.40
2019-02-20T01:05:00.420Z,14.87
2019-02-20T01:07:48.469Z,13.80
2019-02-20T01:10:36.708Z,15.13
2019-02-20T01:13:24.645Z,14.67
2019-02-20T01:16:13.120Z,14.03
2019-02-20T01:19:01.209Z,16.17
2019-02-20T01:21:49.990Z,16.17
2019-02-20T01:24:38.239Z,13.80
2019-02-20T01:27:26.212Z,16.83
2019-02-20T01:30:14.421Z,14.07
2019-02-20T01:33:02.489Z,14.13
2019-02-20T01:35:50.639Z,15.70
2019-02-20T01:38:38.530Z,16.03
2019-02-20T01:41:27.078Z,14.60
2019-02-20T01:44:15.616Z,16.80
2019-02-20T01:47:03.897Z,15.13
2019-02-20T01:49:52.783Z,13.73
2019-02-20T01:52:40.659Z,16.50
2019-02-20T01:55:28.607Z,13.20
2019-02-20T01:58:17.181Z,14.90
2019-02-20T02:01:05.352Z,14.20
2019-02-20T02:03:53.291Z,15.37
2019-02-20T02:06:41.072Z,12.73
2019-02-20T02:09:29.280Z,13.23
2019-02-20T02:12:17.572Z,14.47
2019-02-20T02:15:05.634Z,12.90
2019-02-20T02:17:54.001Z,15.90
2019-02-20T02:20:42.938Z,12.67
2019-02-20T02:23:31.617Z,12.97
2019-02-20T02:26:19.588Z,11.63
2019-02-20T02:32:00.079Z,11.20
2019-02-20T02:34:48.444Z,10.20
2019-02-20T02:37:37.668Z,12.00
2019-02-20T02:40:25.775Z,8.07
2019-02-20T02:43:14.025Z,8.13
2019-02-20T02:46:02.568Z,9.23
2019-02-20T02:48:50.344Z,9.93
2019-02-20T02:51:38.149Z,9.30
2019-02-20T02:54:26.728Z,10.13
2019-02-20T02:57:14.635Z,10.87
2019-02-20T03:00:02.868Z,9.27
2019-02-20T03:02:51.260Z,10.17
2019-02-20T03:05:39.282Z,10.53
2019-02-20T03:08:27.893Z,12.20
2019-02-20T03:11:15.723Z,10.90
2019-02-20T03:14:04.430Z,10.13
2019-02-20T03:16:52.469Z,11.43
2019-02-20T03:19:41.030Z,10.17
2019-02-20T03:22:29.779Z,13.33
2019-02-20T03:25:17.619Z,9.87
2019-02-20T03:28:05.594Z,10.57
2019-02-20T03:30:54.425Z,9.73
2019-02-20T03:33:42.870Z,8.37
2019-02-20T03:36:31.038Z,8.13
2019-02-20T03:39:19.323Z,9.20
2019-02-20T03:42:08.522Z,9.33
2019-02-20T03:44:57.108Z,8.90
2019-02-20T03:51:04.943Z,9.33
2019-02-20T03:53:53.355Z,10.37
2019-02-20T03:56:41.083Z,11.33
2019-02-20T03:59:29.166Z,10.47
2019-02-20T04:02:17.363Z,9.33
2019-02-20T04:05:05.454Z,7.10
2019-02-20T04:07:53.437Z,7.07
2019-02-20T04:10:41.556Z,9.87
2019-02-20T04:13:29.283Z,8.13
2019-02-20T04:16:17.658Z,6.87
2019-02-20T04:19:06.285Z,8.60
2019-02-20T04:21:54.737Z,10.80
2019-02-20T04:24:43.184Z,9.33
2019-02-20T04:27:31.226Z,7.13
2019-02-20T04:30:18.894Z,8.43
2019-02-20T04:33:07.433Z,7.27
2019-02-20T04:35:55.665Z,6.93
2019-02-20T04:38:43.550Z,7.70
2019-02-20T04:41:31.709Z,14.77
2019-02-20T04:44:20.326Z,15.40
2019-02-20T04:47:08.672Z,9.27
2019-02-20T04:49:57.325Z,10.13
2019-02-20T04:52:46.134Z,7.17
2019-02-20T04:55:34.702Z,6.77
2019-02-20T04:58:25.636Z,8.87
2019-02-20T05:01:14.150Z,8.17
2019-02-20T05:04:02.663Z,9.13
2019-02-20T05:06:50.741Z,9.77
2019-02-20T05:09:39.709Z,9.47
2019-02-20T05:12:28.060Z,9.63
2019-02-20T05:15:16.288Z,11.23
2019-02-20T05:18:04.173Z,9.10
2019-02-20T05:20:52.315Z,11.90
2019-02-20T05:23:42.779Z,11.57
2019-02-20T05:26:31.135Z,8.70
2019-02-20T05:29:18.856Z,8.77
2019-02-20T05:32:07.714Z,7.67
2019-02-20T05:34:55.484Z,7.63
2019-02-20T05:37:43.432Z,8.17
2019-02-20T05:40:32.208Z,8.00
2019-02-20T05:43:20.689Z,10.60
2019-02-20T05:46:08.800Z,8.80
2019-02-20T05:48:56.572Z,9.83
2019-02-20T05:51:44.945Z,9.70
2019-02-20T05:54:34.908Z,11.23
2019-02-20T05:57:22.998Z,9.37
2019-02-20T06:00:10.880Z,9.73
2019-02-20T06:02:59.117Z,9.20
2019-02-20T06:05:48.123Z,9.63
2019-02-20T06:08:36.687Z,14.93
2019-02-20T06:11:25.062Z,16.47
2019-02-20T06:14:13.801Z,16.27
2019-02-20T06:17:02.485Z,15.67
2019-02-20T06:19:50.475Z,16.67
2019-02-20T06:22:38.329Z,12.90
2019-02-20T06:25:26.299Z,10.93
2019-02-20T06:28:14.765Z,9.87
2019-02-20T06:31:03.343Z,10.57
2019-02-20T06:33:51.521Z,10.60
2019-02-20T06:36:39.649Z,8.50
2019-02-20T06:39:27.853Z,9.97
2019-02-20T06:42:16.492Z,12.77
2019-02-20T06:45:04.884Z,14.77
2019-02-20T06:50:40.090Z,15.57
2019-02-20T06:53:27.959Z,15.47
2019-02-20T06:56:15.998Z,16.80
2019-02-20T06:59:03.883Z,14.87
2019-02-20T07:01:51.842Z,16.37
2019-02-20T07:04:39.824Z,10.50
2019-02-20T07:07:27.814Z,8.77
2019-02-20T07:10:16.594Z,12.60
2019-02-20T07:13:05.289Z,17.37
2019-02-20T07:15:53.014Z,13.03
2019-02-20T07:18:41.091Z,14.97
2019-02-20T07:21:29.229Z,11.67
2019-02-20T07:24:17.900Z,12.90
2019-02-20T07:27:06.293Z,16.40
2019-02-20T07:29:54.517Z,13.00
2019-02-20T07:32:42.477Z,13.40
2019-02-20T07:35:30.746Z,13.43
2019-02-20T07:38:18.591Z,14.63
2019-02-20T07:41:07.383Z,14.63
2019-02-20T07:43:55.203Z,14.40
2019-02-20T07:46:43.624Z,16.03
2019-02-20T07:49:31.781Z,15.90
2019-02-20T07:52:19.609Z,15.17
2019-02-20T07:55:13.143Z,17.23
2019-02-20T07:57:57.338Z,16.77
2019-02-20T08:00:45.716Z,15.93
2019-02-20T08:03:33.718Z,18.00
2019-02-20T08:06:21.738Z,15.97
2019-02-20T08:09:09.884Z,13.83
2019-02-20T08:11:58.450Z,17.43
2019-02-20T08:14:47.696Z,14.70
2019-02-20T08:17:36.299Z,15.53
2019-02-20T08:20:24.730Z,18.97
2019-02-20T08:23:12.910Z,16.37
2019-02-20T08:26:01.007Z,15.93
2019-02-20T08:28:48.995Z,17.40
2019-02-20T08:31:37.509Z,17.07
2019-02-20T08:34:25.939Z,17.90
2019-02-20T08:37:14.357Z,18.47
2019-02-20T08:40:02.391Z,15.83
2019-02-20T08:42:50.338Z,14.70
2019-02-20T08:45:39.143Z,18.43
2019-02-20T08:48:27.849Z,18.83
2019-02-20T08:51:15.990Z,15.90
2019-02-20T08:54:04.626Z,16.03
2019-02-20T08:56:53.177Z,17.23
2019-02-20T08:59:41.396Z,15.03
2019-02-20T09:02:30.201Z,17.33
2019-02-20T09:05:18.110Z,12.50
2019-02-20T09:08:06.499Z,10.07
2019-02-20T09:10:55.397Z,13.67
2019-02-20T09:13:44.037Z,12.93
2019-02-20T09:16:32.108Z,12.37
2019-02-20T09:19:20.025Z,13.73
2019-02-20T09:22:07.918Z,14.03
2019-02-20T09:24:55.946Z,15.67
2019-02-20T09:27:44.023Z,13.37
2019-02-20T09:30:32.159Z,15.83
2019-02-20T09:33:20.143Z,19.47
2019-02-20T09:36:08.589Z,17.87
2019-02-20T09:38:56.608Z,18.10
2019-02-20T09:41:44.913Z,14.30
2019-02-20T09:44:32.726Z,14.53
2019-02-20T09:47:20.994Z,16.10
2019-02-20T09:50:09.301Z,16.33
2019-02-20T09:52:57.346Z,16.27
2019-02-20T09:55:51.468Z,17.77
2019-02-20T09:58:35.437Z,16.77
2019-02-20T10:01:24.008Z,17.53
2019-02-20T10:04:11.969Z,17.70
2019-02-20T10:07:00.148Z,15.87
2019-02-20T10:09:48.616Z,17.33
2019-02-20T10:12:36.819Z,17.90
2019-02-20T10:15:24.660Z,20.00
2019-02-20T10:18:12.932Z,20.43
2019-02-20T10:21:01.021Z,20.77
2019-02-20T10:29:23.107Z,19.67
2019-02-20T10:32:11.441Z,21.77
2019-02-20T10:34:59.496Z,18.63
2019-02-20T10:37:47.671Z,21.37
2019-02-20T10:40:36.055Z,21.57
2019-02-20T10:43:24.302Z,20.53
2019-02-20T10:46:12.563Z,22.03
2019-02-20T10:49:00.393Z,19.60
2019-02-20T10:54:33.770Z,20.20
2019-02-20T10:57:22.459Z,22.33
2019-02-20T11:00:23.575Z,21.30
2019-02-20T11:03:05.402Z,20.90
2019-02-20T11:08:59.203Z,19.33
2019-02-20T11:11:47.101Z,17.73
2019-02-20T11:14:37.675Z,17.67
2019-02-20T11:17:25.272Z,22.30
2019-02-20T11:20:14.035Z,19.13
2019-02-20T11:23:01.932Z,15.47
2019-02-20T11:25:50.544Z,19.40
2019-02-20T11:28:39.321Z,19.30
2019-02-20T11:31:27.097Z,19.10
2019-02-20T11:34:15.014Z,20.73
2019-02-20T11:39:54.247Z,17.43
2019-02-20T11:42:42.694Z,16.13
2019-02-20T11:45:31.383Z,14.17
2019-02-20T11:48:19.382Z,13.80
2019-02-20T11:51:08.053Z,16.10
2019-02-20T11:53:57.615Z,13.10
2019-02-20T11:56:46.198Z,14.53
2019-02-20T11:59:34.391Z,14.70
2019-02-20T12:02:23.040Z,14.80
2019-02-20T12:05:11.149Z,14.67
2019-02-20T12:10:45.777Z,19.90
2019-02-20T12:13:34.516Z,22.33
2019-02-20T12:16:23.111Z,20.60
2019-02-20T12:19:11.317Z,24.57
2019-02-20T12:21:59.099Z,25.73
2019-02-20T12:24:46.939Z,21.40
2019-02-20T12:27:35.377Z,22.23
2019-02-20T12:30:23.699Z,20.97
2019-02-20T12:33:12.265Z,21.90
2019-02-20T12:36:00.914Z,21.60
2019-02-20T12:41:35.986Z,23.33
2019-02-20T12:44:23.683Z,22.93
2019-02-20T12:47:12.011Z,21.67
2019-02-20T12:50:00.319Z,24.57
2019-02-20T12:52:48.545Z,20.10
2019-02-20T12:58:21.881Z,25.90
2019-02-20T13:01:10.205Z,21.93
2019-02-20T13:03:58.328Z,21.33
2019-02-20T13:06:47.092Z,24.33
2019-02-20T13:09:35.759Z,21.13
2019-02-20T13:12:24.269Z,23.10
2019-02-20T13:15:12.762Z,23.67
2019-02-20T13:18:00.733Z,28.33
2019-02-20T13:20:48.798Z,26.87
2019-02-20T13:23:36.789Z,27.40
2019-02-20T13:26:24.862Z,28.80
2019-02-20T13:29:13.599Z,23.60
2019-02-20T13:32:02.302Z,24.90
2019-02-20T13:34:50.744Z,26.37
2019-02-20T13:37:39.176Z,24.50
2019-02-20T13:40:26.935Z,25.53
2019-02-20T13:43:14.962Z,24.87
2019-02-20T13:46:03.936Z,22.77
2019-02-20T13:48:52.450Z,25.07
2019-02-20T13:51:40.197Z,24.17
2019-02-20T13:54:28.926Z,27.73
2019-02-20T13:57:17.705Z,28.77
2019-02-20T14:00:06.601Z,25.17
2019-02-20T14:02:55.441Z,22.33
2019-02-20T14:05:44.326Z,21.97
2019-02-20T14:08:32.215Z,24.17
2019-02-20T14:11:20.258Z,23.40
2019-02-20T14:14:09.069Z,27.20
2019-02-20T14:16:57.264Z,23.60
2019-02-20T14:19:46.460Z,21.37
2019-02-20T14:22:34.488Z,21.50
2019-02-20T14:25:23.840Z,22.93
2019-02-20T14:28:11.731Z,23.13
2019-02-20T14:30:59.512Z,20.37
2019-02-20T14:33:47.933Z,21.93
2019-02-20T14:36:35.864Z,22.17
2019-02-20T14:39:23.873Z,18.80
2019-02-20T14:42:12.365Z,22.60
2019-02-20T14:45:00.816Z,27.30
2019-02-20T14:47:48.570Z,19.40
2019-02-20T14:50:37.460Z,22.17
2019-02-20T14:56:14.728Z,20.10
2019-02-20T14:59:02.494Z,23.63
2019-02-20T15:01:50.577Z,20.57
2019-02-20T15:04:38.705Z,19.80
2019-02-20T15:07:27.001Z,18.17
2019-02-20T15:10:15.721Z,20.57
2019-02-20T15:13:03.842Z,17.93
2019-02-20T15:15:52.006Z,17.67
2019-02-20T15:18:40.695Z,19.23
2019-02-20T15:21:29.349Z,15.30
2019-02-20T15:24:17.923Z,18.60
2019-02-20T15:27:06.291Z,14.13
2019-02-20T15:29:54.602Z,13.27
2019-02-20T15:32:43.042Z,13.20
2019-02-20T15:35:31.102Z,11.57
2019-02-20T15:38:19.074Z,14.90
2019-02-20T15:41:07.060Z,11.47
2019-02-20T15:43:55.326Z,12.03
2019-02-20T15:46:43.476Z,11.07
2019-02-20T15:49:31.820Z,11.43
2019-02-20T15:52:20.242Z,12.60
2019-02-20T15:55:08.583Z,15.33
2019-02-20T15:57:56.320Z,10.77
2019-02-20T16:00:44.400Z,14.37
2019-02-20T16:03:32.295Z,11.57
2019-02-20T16:06:20.409Z,14.20
2019-02-20T16:09:08.482Z,18.50
2019-02-20T16:11:56.504Z,20.27
2019-02-20T16:14:45.288Z,11.77
2019-02-20T16:17:33.464Z,23.30
2019-02-20T16:20:22.211Z,21.93
2019-02-20T16:23:10.721Z,26.17
2019-02-20T16:25:58.635Z,22.00
2019-02-20T16:28:46.425Z,24.80
2019-02-20T16:31:34.583Z,22.03
2019-02-20T16:34:22.668Z,20.67
2019-02-20T16:37:10.614Z,22.40
2019-02-20T16:39:58.689Z,20.03
2019-02-20T16:42:47.443Z,18.67
2019-02-20T16:45:35.152Z,18.10
2019-02-20T16:48:23.127Z,19.00
2019-02-20T16:51:11.155Z,22.60
2019-02-20T16:53:59.710Z,17.30
2019-02-20T16:56:47.390Z,18.87
2019-02-20T16:59:35.310Z,14.40
2019-02-20T17:02:23.532Z,15.13
2019-02-20T17:05:14.214Z,11.57
2019-02-20T17:08:01.409Z,14.83
2019-02-20T17:10:49.383Z,14.63
2019-02-20T17:13:39.564Z,16.33
2019-02-20T17:16:27.688Z,13.57
2019-02-20T17:19:16.799Z,13.37
2019-02-20T17:22:04.580Z,14.10
2019-02-20T17:24:53.275Z,14.77
2019-02-20T17:27:41.217Z,18.00
2019-02-20T17:30:29.022Z,12.93
2019-02-20T17:33:17.219Z,16.27
2019-02-20T17:36:05.487Z,17.27
2019-02-20T17:38:53.550Z,14.00
2019-02-20T17:41:41.905Z,13.33
2019-02-20T17:44:30.531Z,13.53
2019-02-20T17:47:18.624Z,11.67
2019-02-20T17:50:06.821Z,12.43
2019-02-20T17:52:56.325Z,18.73
2019-02-20T17:55:45.366Z,10.63
2019-02-20T17:58:42.653Z,14.10
2019-02-20T18:01:31.428Z,15.50
2019-02-20T18:04:21.328Z,14.00
2019-02-20T18:07:09.468Z,19.10
2019-02-20T18:09:59.985Z,14.07
2019-02-20T18:12:51.251Z,13.60
2019-02-20T18:18:32.048Z,18.03
2019-02-20T18:21:20.431Z,13.53
2019-02-20T18:27:07.906Z,19.33
2019-02-20T18:29:57.749Z,15.70
2019-02-20T18:35:38.285Z,16.80
2019-02-20T18:41:24.348Z,13.00
2019-02-20T18:44:12.921Z,15.70
2019-02-20T18:47:01.436Z,14.53
2019-02-20T18:59:00.024Z,12.07
2019-02-20T19:01:48.187Z,14.47
2019-02-20T19:04:44.551Z,11.10
2019-02-20T19:07:33.522Z,10.20
2019-02-20T19:10:25.402Z,12.37
2019-02-20T19:13:15.427Z,10.47
2019-02-20T19:16:03.304Z,12.80
2019-02-20T19:21:45.112Z,17.60
2019-02-20T19:24:33.556Z,13.07
2019-02-20T19:27:22.884Z,12.57
2019-02-20T19:30:11.112Z,12.60
2019-02-20T19:32:59.684Z,15.17
2019-02-20T19:35:47.529Z,12.33
2019-02-20T19:38:35.350Z,14.53
2019-02-20T19:41:23.936Z,11.93
2019-02-20T19:44:12.160Z,17.37
2019-02-20T19:47:00.431Z,15.57
2019-02-20T19:49:51.547Z,13.90
2019-02-20T19:52:40.813Z,14.30
2019-02-20T19:55:28.688Z,12.10
2019-02-20T20:01:03.696Z,11.87
2019-02-20T20:03:53.259Z,14.50
2019-02-20T20:09:33.270Z,14.67
2019-02-20T20:12:25.947Z,12.10
2019-02-20T20:15:14.681Z,14.30
2019-02-20T20:18:03.733Z,13.57
2019-02-20T20:20:51.912Z,14.07
2019-02-20T20:23:40.403Z,15.97
2019-02-20T20:26:28.838Z,16.17
2019-02-20T20:29:17.966Z,15.90
2019-02-20T20:32:06.563Z,16.40
2019-02-20T20:34:54.889Z,19.20
2019-02-20T20:37:42.826Z,18.20
2019-02-20T20:40:51.631Z,19.00
2019-02-20T20:43:40.721Z,19.93
2019-02-20T20:46:30.244Z,18.43
2019-02-20T20:49:19.699Z,17.80
2019-02-20T20:52:07.851Z,19.40
2019-02-20T20:57:51.044Z,16.83
2019-02-20T21:00:40.902Z,18.33
2019-02-20T21:03:29.718Z,16.93
2019-02-20T21:06:18.119Z,18.93
2019-02-20T21:09:07.034Z,18.53
2019-02-20T21:11:56.170Z,18.93
2019-02-20T21:14:47.210Z,16.93
2019-02-20T21:17:38.374Z,18.57
2019-02-20T21:23:22.496Z,24.77
2019-02-20T21:29:02.728Z,25.73
2019-02-20T21:31:54.333Z,23.33
2019-02-20T21:34:42.380Z,23.60
2019-02-20T21:37:31.340Z,21.07
2019-02-20T21:40:20.051Z,20.07
2019-02-20T21:43:09.330Z,21.73
2019-02-20T21:45:57.749Z,15.90
2019-02-20T21:48:45.775Z,20.97
2019-02-20T21:51:34.464Z,15.50
2019-02-20T21:54:25.978Z,17.63
2019-02-20T21:57:13.907Z,16.97
2019-02-20T22:00:02.875Z,19.67
2019-02-20T22:02:51.416Z,17.77
2019-02-20T22:05:40.848Z,19.40
2019-02-20T22:08:29.048Z,19.17
2019-02-20T22:11:27.384Z,18.17
2019-02-20T22:14:15.639Z,16.70
2019-02-20T22:17:04.163Z,17.57
2019-02-20T22:19:52.681Z,17.93
2019-02-20T22:22:40.920Z,19.27
2019-02-20T22:25:29.068Z,17.27
2019-02-20T22:28:17.924Z,16.60
2019-02-20T22:31:06.049Z,18.50
2019-02-20T22:33:54.254Z,19.53
2019-02-20T22:36:43.094Z,19.90
2019-02-20T22:39:31.764Z,17.70
2019-02-20T22:42:21.397Z,17.67
2019-02-20T22:45:10.873Z,16.53
2019-02-20T22:47:59.433Z,16.87
2019-02-20T22:50:48.431Z,18.73
2019-02-20T22:53:36.668Z,16.70
2019-02-20T22:56:24.741Z,18.73
2019-02-20T22:59:12.518Z,18.77
2019-02-20T23:02:00.967Z,18.47
2019-02-20T23:04:49.869Z,19.33
2019-02-20T23:07:41.246Z,18.70
2019-02-20T23:10:31.141Z,20.23
2019-02-20T23:13:20.587Z,19.57
2019-02-20T23:16:10.509Z,21.80
2019-02-20T23:18:59.307Z,22.80
2019-02-20T23:21:48.241Z,24.53
2019-02-20T23:24:42.147Z,28.07
2019-02-20T23:27:32.053Z,27.27
2019-02-20T23:30:20.000Z,25.50
2019-02-20T23:33:07.970Z,16.53
2019-02-20T23:35:57.230Z,17.83
2019-02-20T23:38:45.832Z,24.93
2019-02-20T23:41:33.955Z,20.30
2019-02-20T23:44:22.297Z,18.80
2019-02-20T23:47:10.743Z,25.70
2019-02-20T23:49:58.975Z,23.50
2019-02-20T23:52:47.382Z,19.90
2019-02-20T23:55:35.911Z,26.07
2019-02-20T23:58:23.954Z,22.93
